Time;durP1;ratioP1;P1;durP2;ratioP2;P2;SDS_P1;SDS_P2;PMS_P1;PMS_P2;Temp;Humidity;BMP_temperature;BMP_pressure;BME280_temperature;BME280_humidity;BME280_pressure;Samples;Min_cycle;Max_cycle;Signal;HPM_P1;HPM_P2
2023/06/21 00:02:17;;;;;;;1.80;1.70;;;;;21.30;95923.00;;;;5034998;28;20734;-54
2023/06/21 00:04:45;;;;;;;1.30;1.30;;;;;21.20;95920.00;;;;5034914;28;20224;-54
2023/06/21 00:07:12;;;;;;;1.50;1.40;;;;;21.00;95928.00;;;;5035464;28;20220;-55
2023/06/21 00:09:40;;;;;;;2.92;2.55;;;;;21.00;95929.00;;;;5033740;28;20204;-54
2023/06/21 00:12:08;;;;;;;1.67;1.58;;;;;21.00;95930.00;;;;5034858;28;20284;-53
2023/06/21 00:14:35;;;;;;;1.40;1.30;;;;;21.00;95921.00;;;;5034716;28;20719;-53
2023/06/21 00:17:05;;;;;;;0.80;0.80;;;;;21.00;95934.00;;;;5034999;28;20193;-54
2023/06/21 00:19:32;;;;;;;1.92;1.83;;;;;21.00;95930.00;;;;5034635;28;20616;-54
2023/06/21 00:22:00;;;;;;;1.92;1.83;;;;;21.00;95932.00;;;;5034700;28;20272;-54
2023/06/21 00:24:27;;;;;;;1.70;1.50;;;;;21.00;95932.00;;;;5034482;28;20282;-54
2023/06/21 00:26:56;;;;;;;0.75;0.75;;;;;20.90;95936.00;;;;5034653;28;20199;-54
2023/06/21 00:29:23;;;;;;;2.65;1.25;;;;;20.90;95941.00;;;;5034725;28;20197;-54
2023/06/21 00:31:51;;;;;;;1.58;1.48;;;;;20.90;95937.00;;;;5034682;28;20196;-54
2023/06/21 00:34:19;;;;;;;1.23;1.23;;;;;20.80;95933.00;;;;5034308;28;20220;-54
2023/06/21 00:36:47;;;;;;;3.10;2.28;;;;;20.80;95951.00;;;;5034819;28;20199;-54
2023/06/21 00:39:14;;;;;;;1.80;1.70;;;;;20.80;95937.00;;;;5034317;28;20238;-54
2023/06/21 00:41:42;;;;;;;0.90;0.90;;;;;20.70;95946.00;;;;5034355;28;20201;-54
2023/06/21 00:44:09;;;;;;;1.17;1.17;;;;;20.50;95953.00;;;;5033948;28;20287;-54
2023/06/21 00:46:37;;;;;;;1.50;1.42;;;;;20.60;95945.00;;;;5034186;28;20196;-54
2023/06/21 00:49:04;;;;;;;1.70;1.55;;;;;20.50;95950.00;;;;5034125;28;20201;-54
2023/06/21 00:51:36;;;;;;;2.40;2.20;;;;;20.50;95966.00;;;;5034605;28;20200;-54
2023/06/21 00:54:04;;;;;;;2.50;2.30;;;;;20.40;95960.00;;;;5033320;28;20255;-54
2023/06/21 00:56:33;;;;;;;1.27;1.27;;;;;20.40;95964.00;;;;5033988;28;20698;-54
2023/06/21 00:59:04;;;;;;;2.05;1.95;;;;;20.40;95956.00;;;;5033909;28;20227;-54
2023/06/21 01:01:34;;;;;;;1.25;1.25;;;;;20.40;95960.00;;;;5034429;28;20185;-54
2023/06/21 01:04:01;;;;;;;1.10;1.10;;;;;20.50;95965.00;;;;5033704;28;20235;-54
2023/06/21 01:06:36;;;;;;;1.00;1.00;;;;;20.50;95966.00;;;;5033740;28;20216;-54
2023/06/21 01:09:13;;;;;;;1.15;1.15;;;;;20.50;95971.00;;;;5034043;28;20203;-54
2023/06/21 01:11:52;;;;;;;1.05;1.05;;;;;20.30;95980.00;;;;5034020;28;20208;-54
2023/06/21 01:14:28;;;;;;;1.88;1.77;;;;;20.30;95978.00;;;;5033549;28;20278;-54
2023/06/21 01:16:57;;;;;;;1.37;1.37;;;;;20.10;95976.00;;;;5033062;28;20262;-54
2023/06/21 01:19:34;;;;;;;1.08;1.08;;;;;20.20;95962.00;;;;5033501;28;20505;-54
2023/06/21 01:22:16;;;;;;;2.25;1.25;;;;;20.20;95965.00;;;;5033765;28;20209;-55
2023/06/21 01:24:55;;;;;;;0.88;0.88;;;;;20.30;95956.00;;;;5033891;28;20267;-54
2023/06/21 01:27:38;;;;;;;0.75;0.75;;;;;20.30;95956.00;;;;5033972;28;20259;-54
2023/06/21 01:30:09;;;;;;;1.00;1.00;;;;;20.20;95958.00;;;;5033742;28;20640;-54
2023/06/21 01:32:39;;;;;;;0.98;0.98;;;;;20.30;95977.00;;;;5033418;28;20274;-54
2023/06/21 01:35:08;;;;;;;1.17;1.17;;;;;20.20;95980.00;;;;5033287;28;20263;-55
2023/06/21 01:37:35;;;;;;;5.03;1.58;;;;;20.10;95986.00;;;;5033297;28;20193;-54
2023/06/21 01:40:11;;;;;;;2.15;1.98;;;;;20.10;95996.00;;;;5033142;28;20251;-54
2023/06/21 01:42:39;;;;;;;1.20;1.20;;;;;20.00;95999.00;;;;5033296;28;20196;-54
2023/06/21 01:45:10;;;;;;;1.00;0.88;;;;;20.00;96008.00;;;;5051099;23;20306;-55
2023/06/21 01:47:39;;;;;;;2.22;1.80;;;;;19.90;96004.00;;;;5053144;28;20192;-53
2023/06/21 01:50:08;;;;;;;1.55;1.45;;;;;19.90;96006.00;;;;5053218;28;20198;-53
2023/06/21 01:52:36;;;;;;;2.25;2.15;;;;;19.90;96008.00;;;;5053492;28;20202;-53
2023/06/21 01:55:05;;;;;;;2.88;2.67;;;;;19.90;96011.00;;;;5046380;28;20218;-54
2023/06/21 01:57:35;;;;;;;1.38;1.27;;;;;19.90;96012.00;;;;5032991;28;20228;-53
2023/06/21 02:00:13;;;;;;;0.93;0.93;;;;;19.90;96012.00;;;;5032988;28;20197;-55
2023/06/21 02:02:45;;;;;;;1.40;1.33;;;;;19.80;96015.00;;;;5032998;28;20231;-56
2023/06/21 02:05:16;;;;;;;1.97;1.87;;;;;19.70;96018.00;;;;5032871;28;20590;-53
2023/06/21 02:07:45;;;;;;;2.00;1.90;;;;;19.50;96017.00;;;;5033029;28;20188;-53
2023/06/21 02:10:13;;;;;;;0.90;0.90;;;;;19.40;96019.00;;;;5032910;28;20196;-53
2023/06/21 02:12:42;;;;;;;0.90;0.90;;;;;19.50;96012.00;;;;5033150;28;20197;-54
2023/06/21 02:15:11;;;;;;;2.77;1.13;;;;;19.40;96009.00;;;;5033261;28;20220;-53
2023/06/21 02:17:38;;;;;;;1.33;1.27;;;;;19.30;96013.00;;;;5032856;28;20189;-54
2023/06/21 02:20:13;;;;;;;1.10;1.10;;;;;19.30;96021.00;;;;5032835;28;20193;-54
2023/06/21 02:22:40;;;;;;;12.38;1.83;;;;;19.30;96022.00;;;;5033043;28;20578;-54
2023/06/21 02:25:08;;;;;;;1.33;1.23;;;;;19.40;96024.00;;;;5032644;28;20212;-54
2023/06/21 02:27:36;;;;;;;1.90;1.60;;;;;19.50;96026.00;;;;5032741;28;20203;-54
2023/06/21 02:30:04;;;;;;;1.37;1.33;;;;;19.40;96021.00;;;;5032786;28;20192;-54
2023/06/21 02:32:32;;;;;;;1.63;1.53;;;;;19.20;96033.00;;;;5032992;28;20193;-54
2023/06/21 02:35:00;;;;;;;1.20;1.17;;;;;19.30;96032.00;;;;5032666;28;20688;-54
2023/06/21 02:37:29;;;;;;;1.53;1.43;;;;;19.20;96030.00;;;;5032812;28;20195;-54
2023/06/21 02:39:57;;;;;;;1.23;1.23;;;;;19.20;96016.00;;;;5032654;28;20247;-54
2023/06/21 02:42:26;;;;;;;3.73;2.33;;;;;19.30;96020.00;;;;5033663;28;20636;-54
2023/06/21 02:44:53;;;;;;;0.80;0.80;;;;;19.40;96025.00;;;;5032839;28;20702;-54
2023/06/21 02:47:21;;;;;;;2.00;1.90;;;;;19.40;96023.00;;;;5032893;28;20252;-54
2023/06/21 02:49:48;;;;;;;2.07;1.60;;;;;19.40;96029.00;;;;5033715;28;20644;-54
2023/06/21 02:52:16;;;;;;;1.30;1.30;;;;;18.90;96042.00;;;;5033001;28;20196;-54
2023/06/21 02:54:45;;;;;;;3.87;2.10;;;;;18.90;96054.00;;;;5032882;28;20247;-54
2023/06/21 02:57:12;;;;;;;2.20;2.07;;;;;19.10;96053.00;;;;5032547;28;20208;-54
2023/06/21 02:59:39;;;;;;;1.37;1.30;;;;;19.20;96060.00;;;;5033298;28;20204;-57
2023/06/21 03:02:07;;;;;;;1.43;1.33;;;;;19.10;96059.00;;;;5032735;28;20209;-54
2023/06/21 03:04:35;;;;;;;1.53;1.43;;;;;19.10;96069.00;;;;5032627;28;20196;-55
2023/06/21 03:07:05;;;;;;;3.40;1.67;;;;;19.20;96070.00;;;;5032367;28;20220;-54
2023/06/21 03:09:32;;;;;;;1.43;1.43;;;;;19.30;96076.00;;;;5032391;28;20189;-54
2023/06/21 03:12:07;;;;;;;0.63;0.63;;;;;19.40;96067.00;;;;5032841;28;20192;-55
2023/06/21 03:14:37;;;;;;;2.07;1.97;;;;;19.40;96083.00;;;;5032315;28;20184;-54
2023/06/21 03:17:05;;;;;;;2.00;1.90;;;;;19.10;96105.00;;;;5034309;28;20197;-54
2023/06/21 03:19:33;;;;;;;1.47;1.37;;;;;19.10;96150.00;;;;5035961;28;20192;-55
2023/06/21 03:22:00;;;;;;;1.30;1.30;;;;;18.90;96208.00;;;;5035797;28;20200;-55
2023/06/21 03:24:32;;;;;;;2.07;1.97;;;;;18.70;96160.00;;;;5035869;28;20204;-54
2023/06/21 03:27:02;;;;;;;1.20;1.20;;;;;18.20;96236.00;;;;5035946;28;20568;-54
2023/06/21 03:29:30;;;;;;;1.30;1.30;;;;;18.10;96193.00;;;;5035656;28;20636;-54
2023/06/21 03:31:57;;;;;;;1.70;1.60;;;;;18.40;96159.00;;;;5035660;28;20695;-54
2023/06/21 03:34:24;;;;;;;1.77;1.67;;;;;18.40;96162.00;;;;5035538;28;20197;-54
2023/06/21 03:36:54;;;;;;;1.30;1.20;;;;;18.60;96152.00;;;;5035811;28;20197;-54
2023/06/21 03:39:22;;;;;;;1.77;1.67;;;;;18.60;96148.00;;;;5035445;28;20201;-54
2023/06/21 03:41:49;;;;;;;2.30;1.53;;;;;18.70;96152.00;;;;5035391;28;20250;-54
2023/06/21 03:44:18;;;;;;;1.33;1.23;;;;;18.70;96148.00;;;;5035598;28;20556;-54
2023/06/21 03:46:45;;;;;;;1.33;1.33;;;;;18.90;96148.00;;;;5035114;28;20232;-54
2023/06/21 03:49:13;;;;;;;1.90;1.80;;;;;18.50;96152.00;;;;5035315;28;20197;-54
2023/06/21 03:51:40;;;;;;;1.83;1.73;;;;;18.60;96138.00;;;;5035277;28;20220;-54
2023/06/21 03:54:07;;;;;;;2.00;1.83;;;;;18.70;96126.00;;;;5035083;28;20200;-54
2023/06/21 03:56:35;;;;;;;1.43;1.33;;;;;18.50;96124.00;;;;5035127;28;20284;-54
2023/06/21 03:59:02;;;;;;;2.13;1.83;;;;;18.50;96120.00;;;;5035279;28;20533;-53
2023/06/21 04:01:31;;;;;;;1.60;1.50;;;;;18.70;96108.00;;;;5034955;28;20189;-54
2023/06/21 04:03:58;;;;;;;1.23;1.23;;;;;18.70;96093.00;;;;5034992;28;20188;-54
2023/06/21 04:06:26;;;;;;;1.73;1.63;;;;;18.70;96101.00;;;;5034835;28;20224;-54
2023/06/21 04:08:53;;;;;;;1.50;1.40;;;;;18.80;96105.00;;;;5034889;28;20197;-54
2023/06/21 04:11:21;;;;;;;1.63;1.57;;;;;18.90;96095.00;;;;5035155;28;20200;-54
2023/06/21 04:13:48;;;;;;;1.30;1.30;;;;;18.70;96093.00;;;;5034847;28;20196;-54
2023/06/21 04:16:16;;;;;;;1.53;1.43;;;;;18.60;96104.00;;;;5034685;28;20213;-54
2023/06/21 04:18:44;;;;;;;1.70;1.60;;;;;18.70;96106.00;;;;5034861;28;20200;-54
2023/06/21 04:21:12;;;;;;;1.43;1.33;;;;;18.80;96112.00;;;;5034892;28;20526;-54
2023/06/21 04:23:39;;;;;;;2.43;1.93;;;;;18.90;96117.00;;;;5034438;28;20201;-54
2023/06/21 04:26:06;;;;;;;1.27;1.27;;;;;18.90;96107.00;;;;5033100;28;20229;-54
2023/06/21 04:28:34;;;;;;;0.93;0.93;;;;;18.90;96107.00;;;;5034470;28;20315;-54
2023/06/21 04:31:02;;;;;;;1.03;0.97;;;;;18.90;96115.00;;;;5034403;28;20229;-54
2023/06/21 04:33:29;;;;;;;1.17;1.13;;;;;18.90;96117.00;;;;5034356;28;20219;-55
2023/06/21 04:35:58;;;;;;;13.73;1.40;;;;;19.00;96114.00;;;;5034607;28;20215;-55
2023/06/21 04:38:25;;;;;;;1.07;1.07;;;;;19.00;96122.00;;;;5034695;28;20196;-55
2023/06/21 04:40:53;;;;;;;1.57;1.47;;;;;19.00;96122.00;;;;5034369;28;20189;-54
2023/06/21 04:43:24;;;;;;;1.63;1.53;;;;;19.00;96131.00;;;;5034174;28;20235;-55
2023/06/21 04:45:52;;;;;;;1.30;1.27;;;;;19.00;96125.00;;;;5034110;28;20311;-54
2023/06/21 04:48:24;;;;;;;1.07;1.07;;;;;19.10;96132.00;;;;5034157;28;20251;-54
2023/06/21 04:50:51;;;;;;;3.90;1.70;;;;;19.20;96128.00;;;;5034324;28;20189;-54
2023/06/21 04:53:29;;;;;;;1.03;1.03;;;;;19.10;96136.00;;;;5034131;28;20207;-54
2023/06/21 04:55:57;;;;;;;1.40;1.17;;;;;19.10;96145.00;;;;5034331;28;20299;-55
2023/06/21 04:58:24;;;;;;;1.03;1.03;;;;;19.10;96136.00;;;;5032711;28;20208;-54
2023/06/21 05:00:52;;;;;;;5.03;3.50;;;;;19.10;96142.00;;;;5033870;28;20235;-55
2023/06/21 05:03:19;;;;;;;0.97;0.97;;;;;19.00;96147.00;;;;5034449;28;20196;-54
2023/06/21 05:05:47;;;;;;;1.20;1.20;;;;;18.80;96147.00;;;;5033670;28;20267;-54
2023/06/21 05:08:15;;;;;;;1.37;1.33;;;;;18.90;96139.00;;;;5033800;28;20557;-54
2023/06/21 05:10:43;;;;;;;1.17;1.17;;;;;19.10;96149.00;;;;5033644;28;20327;-55
2023/06/21 05:13:11;;;;;;;1.30;1.30;;;;;18.90;96149.00;;;;5033631;28;20200;-54
2023/06/21 05:15:38;;;;;;;1.17;1.17;;;;;18.60;96160.00;;;;5033583;28;20223;-54
2023/06/21 05:18:06;;;;;;;3.33;1.23;;;;;18.70;96158.00;;;;5033915;28;20201;-55
2023/06/21 05:20:33;;;;;;;1.07;1.07;;;;;19.00;96158.00;;;;5033802;28;20200;-54
2023/06/21 05:23:01;;;;;;;1.83;1.43;;;;;19.20;96162.00;;;;5033475;28;20193;-54
2023/06/21 05:25:29;;;;;;;5.30;1.50;;;;;19.30;96162.00;;;;5033629;28;20628;-55
2023/06/21 05:27:57;;;;;;;0.93;0.93;;;;;19.30;96152.00;;;;5033384;28;20215;-54
2023/06/21 05:30:25;;;;;;;1.27;1.17;;;;;19.40;96134.00;;;;5033317;28;20197;-54
2023/06/21 05:32:52;;;;;;;0.93;0.93;;;;;19.60;96135.00;;;;5033562;28;20212;-54
2023/06/21 05:35:19;;;;;;;1.10;1.10;;;;;19.60;96133.00;;;;5033549;28;20278;-54
2023/06/21 05:37:47;;;;;;;1.30;1.23;;;;;19.70;96118.00;;;;5033303;28;20242;-54
2023/06/21 05:40:14;;;;;;;2.20;2.00;;;;;19.80;96099.00;;;;5032828;28;20184;-54
2023/06/21 05:42:41;;;;;;;2.77;1.70;;;;;19.80;96098.00;;;;5033442;28;20528;-54
2023/06/21 05:45:11;;;;;;;0.50;0.50;;;;;19.90;96106.00;;;;5033061;28;20274;-54
2023/06/21 05:47:38;;;;;;;0.70;0.70;;;;;20.00;96111.00;;;;5033034;28;20215;-54
2023/06/21 05:50:06;;;;;;;1.00;1.00;;;;;20.20;96136.00;;;;5033089;28;20196;-54
2023/06/21 05:52:34;;;;;;;1.33;1.27;;;;;19.70;96151.00;;;;5029194;28;20694;-54
2023/06/21 05:55:01;;;;;;;1.27;1.23;;;;;19.30;96154.00;;;;5029101;28;20236;-55
2023/06/21 05:57:29;;;;;;;1.23;1.23;;;;;19.50;96165.00;;;;5029370;28;20201;-55
2023/06/21 05:59:57;;;;;;;1.10;1.10;;;;;19.60;96154.00;;;;5031111;28;20585;-55
2023/06/21 06:02:25;;;;;;;1.80;1.67;;;;;19.70;96157.00;;;;5031002;28;20204;-55
2023/06/21 06:04:53;;;;;;;1.50;1.40;;;;;19.90;96158.00;;;;5030877;28;20216;-55
2023/06/21 06:07:23;;;;;;;1.87;1.77;;;;;20.10;96165.00;;;;5029785;28;20295;-55
2023/06/21 06:09:50;;;;;;;0.80;0.80;;;;;20.20;96167.00;;;;5029147;28;20216;-55
2023/06/21 06:12:18;;;;;;;1.03;1.03;;;;;20.20;96173.00;;;;5031281;28;20224;-55
2023/06/21 06:14:46;;;;;;;2.10;1.67;;;;;20.20;96159.00;;;;5028257;28;20334;-55
2023/06/21 06:17:13;;;;;;;1.13;1.00;;;;;20.20;96155.00;;;;5030309;28;20197;-56
2023/06/21 06:19:42;;;;;;;1.37;1.30;;;;;20.10;96159.00;;;;5030571;28;20207;-55
2023/06/21 06:22:09;;;;;;;0.80;0.80;;;;;20.20;96159.00;;;;5030557;28;20201;-55
2023/06/21 06:24:37;;;;;;;1.03;1.03;;;;;20.00;96163.00;;;;5030542;28;20200;-56
2023/06/21 06:27:05;;;;;;;3.37;1.83;;;;;19.70;96167.00;;;;5029137;28;20278;-55
2023/06/21 06:29:32;;;;;;;2.33;2.13;;;;;20.00;96170.00;;;;5030955;28;20567;-55
2023/06/21 06:32:00;;;;;;;1.27;1.17;;;;;20.00;96172.00;;;;5029978;28;20208;-55
2023/06/21 06:34:27;;;;;;;1.17;1.17;;;;;20.30;96169.00;;;;5030808;28;20220;-56
2023/06/21 06:36:56;;;;;;;0.93;0.93;;;;;20.30;96165.00;;;;5030182;28;20209;-55
2023/06/21 06:39:23;;;;;;;1.30;1.30;;;;;20.40;96161.00;;;;5029863;28;20744;-55
2023/06/21 06:41:51;;;;;;;0.98;0.98;;;;;20.50;96171.00;;;;5029345;28;20300;-55
2023/06/21 06:44:18;;;;;;;1.10;1.10;;;;;20.70;96180.00;;;;5030337;28;20212;-55
2023/06/21 06:46:46;;;;;;;0.57;0.57;;;;;20.70;96184.00;;;;5030226;28;20232;-53
2023/06/21 06:49:13;;;;;;;1.25;1.23;;;;;20.70;96185.00;;;;5030641;28;20213;-55
2023/06/21 06:51:42;;;;;;;1.07;1.07;;;;;20.80;96179.00;;;;5029126;28;20212;-56
2023/06/21 06:54:11;;;;;;;1.27;1.23;;;;;20.60;96164.00;;;;5034550;28;20204;-56
2023/06/21 06:56:39;;;;;;;0.88;0.88;;;;;20.50;96166.00;;;;5033882;28;20236;-55
2023/06/21 06:59:06;;;;;;;2.50;2.30;;;;;20.60;96165.00;;;;5034253;28;20204;-54
2023/06/21 07:01:34;;;;;;;2.92;2.58;;;;;20.90;96149.00;;;;5034326;28;20559;-53
2023/06/21 07:04:01;;;;;;;1.77;1.67;;;;;21.10;96155.00;;;;5034285;28;20203;-54
2023/06/21 07:06:29;;;;;;;1.45;1.35;;;;;21.20;96154.00;;;;5033067;28;20220;-54
2023/06/21 07:08:56;;;;;;;1.13;1.13;;;;;21.70;96162.00;;;;5034359;28;20196;-55
2023/06/21 07:11:25;;;;;;;1.17;1.17;;;;;22.00;96174.00;;;;5033991;28;20201;-54
2023/06/21 07:13:52;;;;;;;1.10;1.10;;;;;22.00;96177.00;;;;5033841;28;20287;-55
2023/06/21 07:16:20;;;;;;;1.13;1.13;;;;;22.30;96187.00;;;;5033499;28;20566;-54
2023/06/21 07:18:48;;;;;;;1.25;1.25;;;;;21.90;96193.00;;;;5034127;28;20197;-54
2023/06/21 07:21:17;;;;;;;0.73;0.73;;;;;22.00;96189.00;;;;5033656;28;20189;-54
2023/06/21 07:23:44;;;;;;;1.02;1.02;;;;;21.80;96191.00;;;;5032329;28;20706;-54
2023/06/21 07:26:11;;;;;;;0.93;0.85;;;;;21.80;96180.00;;;;5033276;28;20220;-54
2023/06/21 07:28:41;;;;;;;1.67;1.58;;;;;22.00;96167.00;;;;5033991;28;20207;-54
2023/06/21 07:31:09;;;;;;;1.20;1.17;;;;;22.20;96171.00;;;;5032034;28;20204;-55
2023/06/21 07:33:37;;;;;;;0.75;0.75;;;;;22.20;96165.00;;;;5028242;28;20211;-55
2023/06/21 07:36:06;;;;;;;0.95;0.95;;;;;22.70;96166.00;;;;5028424;28;20275;-54
2023/06/21 07:38:33;;;;;;;3.15;1.95;;;;;22.70;96156.00;;;;5034084;28;20202;-55
2023/06/21 07:41:01;;;;;;;1.65;1.55;;;;;22.70;96151.00;;;;5033094;28;20310;-54
2023/06/21 07:43:28;;;;;;;0.70;0.70;;;;;22.90;96149.00;;;;5033520;28;20223;-55
2023/06/21 07:45:57;;;;;;;1.10;1.05;;;;;23.00;96148.00;;;;5033367;28;20232;-54
2023/06/21 07:48:24;;;;;;;1.15;1.15;;;;;22.70;96155.00;;;;5028642;28;20217;-54
2023/06/21 07:50:52;;;;;;;0.60;0.60;;;;;22.30;96164.00;;;;5032979;28;20220;-54
2023/06/21 07:53:19;;;;;;;1.15;1.15;;;;;22.60;96167.00;;;;5033127;28;20556;-55
2023/06/21 07:55:47;;;;;;;0.90;0.90;;;;;22.60;96190.00;;;;5032997;28;20220;-54
2023/06/21 07:58:14;;;;;;;0.93;0.93;;;;;22.70;96203.00;;;;5033027;28;20768;-54
2023/06/21 08:00:42;;;;;;;1.33;1.33;;;;;22.40;96219.00;;;;5033279;28;20197;-54
2023/06/21 08:03:10;;;;;;;0.73;0.73;;;;;22.10;96231.00;;;;5028163;28;20207;-54
2023/06/21 08:05:38;;;;;;;0.63;0.63;;;;;21.90;96243.00;;;;5031757;28;20299;-54
2023/06/21 08:08:05;;;;;;;0.70;0.70;;;;;21.90;96247.00;;;;5032732;28;20243;-54
2023/06/21 08:10:33;;;;;;;0.70;0.70;;;;;21.80;96251.00;;;;5032939;28;20196;-54
2023/06/21 08:13:01;;;;;;;1.02;1.02;;;;;21.70;96252.00;;;;5032809;28;20201;-54
2023/06/21 08:15:29;;;;;;;0.75;0.75;;;;;21.60;96255.00;;;;5031796;28;20304;-54
2023/06/21 08:17:57;;;;;;;0.80;0.80;;;;;21.50;96256.00;;;;5032658;28;20192;-54
2023/06/21 08:20:25;;;;;;;0.80;0.80;;;;;21.50;96286.00;;;;5032513;28;20595;-54
2023/06/21 08:22:53;;;;;;;1.02;1.02;;;;;21.50;96275.00;;;;5032489;28;20205;-54
2023/06/21 08:25:20;;;;;;;1.02;1.02;;;;;21.50;96274.00;;;;5032335;28;20723;-54
2023/06/21 08:27:47;;;;;;;2.60;1.65;;;;;21.60;96278.00;;;;5032574;28;20221;-55
2023/06/21 08:30:15;;;;;;;1.17;0.82;;;;;21.50;96270.00;;;;5032231;28;20197;-55
2023/06/21 08:32:42;;;;;;;1.75;1.02;;;;;21.50;96262.00;;;;5032358;28;20271;-55
2023/06/21 08:35:10;;;;;;;0.82;0.82;;;;;21.30;96261.00;;;;5032322;28;20270;-55
2023/06/21 08:37:40;;;;;;;0.80;0.80;;;;;21.40;96259.00;;;;5032192;28;20683;-55
2023/06/21 08:40:09;;;;;;;1.55;1.27;;;;;21.40;96260.00;;;;5032688;28;20557;-55
2023/06/21 08:42:37;;;;;;;0.60;0.60;;;;;21.20;96256.00;;;;5031900;28;20204;-55
2023/06/21 08:45:05;;;;;;;0.98;0.98;;;;;21.10;96267.00;;;;5032435;28;20250;-55
2023/06/21 08:47:35;;;;;;;1.48;1.38;;;;;20.90;96265.00;;;;5031732;28;20208;-54
2023/06/21 08:50:05;;;;;;;0.50;0.50;;;;;20.60;96259.00;;;;5032216;28;20196;-55
2023/06/21 08:52:34;;;;;;;0.60;0.60;;;;;20.30;96259.00;;;;5030077;28;20201;-55
2023/06/21 08:55:07;;;;;;;1.20;1.20;;;;;20.40;96231.00;;;;5032244;28;20224;-55
2023/06/21 08:57:39;;;;;;;1.40;1.30;;;;;20.30;96209.00;;;;5032167;28;20279;-55
2023/06/21 09:00:11;;;;;;;1.60;1.50;;;;;20.50;96185.00;;;;5030812;28;20226;-55
2023/06/21 09:02:49;;;;;;;1.00;0.98;;;;;20.60;96171.00;;;;5031340;28;20216;-55
2023/06/21 09:05:24;;;;;;;0.90;0.90;;;;;20.70;96171.00;;;;5032140;28;20227;-55
2023/06/21 09:07:52;;;;;;;0.63;0.63;;;;;20.70;96175.00;;;;5031353;28;20246;-55
2023/06/21 09:10:21;;;;;;;1.25;1.15;;;;;20.70;96181.00;;;;5032210;28;20227;-55
2023/06/21 09:12:51;;;;;;;0.50;0.50;;;;;20.70;96180.00;;;;5029214;28;20197;-55
2023/06/21 09:15:19;;;;;;;0.88;0.88;;;;;20.60;96177.00;;;;5030830;28;20224;-55
2023/06/21 09:17:48;;;;;;;0.88;0.88;;;;;20.50;96178.00;;;;5031545;28;20189;-55
2023/06/21 09:20:16;;;;;;;1.17;1.17;;;;;20.50;96170.00;;;;5031814;28;20200;-55
2023/06/21 09:22:46;;;;;;;5.45;1.83;;;;;20.40;96142.00;;;;5030828;28;20683;-55
2023/06/21 09:25:14;;;;;;;0.82;0.82;;;;;20.30;96135.00;;;;5031772;28;20785;-55
2023/06/21 09:27:42;;;;;;;1.80;1.70;;;;;20.20;96132.00;;;;5029557;28;20228;-55
2023/06/21 09:30:10;;;;;;;1.00;1.00;;;;;20.20;96139.00;;;;5031672;28;20255;-54
2023/06/21 09:32:38;;;;;;;0.52;0.52;;;;;20.30;96145.00;;;;5030982;28;20197;-55
2023/06/21 09:35:06;;;;;;;2.25;1.42;;;;;20.20;96180.00;;;;5031615;28;20227;-55
2023/06/21 09:37:39;;;;;;;0.73;0.73;;;;;20.20;96210.00;;;;5031050;28;20200;-55
2023/06/21 09:40:07;;;;;;;0.65;0.65;;;;;19.90;96233.00;;;;5029895;28;20691;-55
2023/06/21 09:42:38;;;;;;;0.70;0.70;;;;;20.00;96255.00;;;;5031512;28;20304;-55
2023/06/21 09:45:11;;;;;;;1.10;1.10;;;;;19.90;96297.00;;;;5026817;28;20224;-55
2023/06/21 09:47:41;;;;;;;1.00;1.00;;;;;19.80;96303.00;;;;5030686;28;20212;-55
2023/06/21 09:50:10;;;;;;;0.57;0.57;;;;;19.10;96295.00;;;;5031420;28;20193;-54
2023/06/21 09:52:41;;;;;;;1.20;1.10;;;;;19.10;96290.00;;;;5029694;28;20664;-54
2023/06/21 09:55:12;;;;;;;1.27;1.27;;;;;19.20;96298.00;;;;5031467;28;20609;-54
2023/06/21 09:57:40;;;;;;;1.13;1.13;;;;;19.30;96296.00;;;;5030994;28;20597;-55
2023/06/21 10:00:10;;;;;;;0.80;0.80;;;;;19.00;96291.00;;;;5031008;28;20204;-56
2023/06/21 10:02:39;;;;;;;1.40;1.40;;;;;19.10;96290.00;;;;5029204;28;20208;-54
2023/06/21 10:05:15;;;;;;;1.70;1.60;;;;;19.40;96293.00;;;;5030317;28;20704;-56
2023/06/21 10:07:44;;;;;;;1.70;1.47;;;;;19.50;96291.00;;;;5030674;28;20567;-55
2023/06/21 10:10:12;;;;;;;0.80;0.80;;;;;19.70;96294.00;;;;5030808;28;20201;-56
2023/06/21 10:12:51;;;;;;;7.33;1.30;;;;;20.00;96293.00;;;;5030685;28;20207;-55
2023/06/21 10:15:20;;;;;;;1.13;1.13;;;;;20.20;96299.00;;;;5026884;28;20220;-56
2023/06/21 10:17:48;;;;;;;3.23;1.37;;;;;19.90;96291.00;;;;5030824;28;20219;-55
2023/06/21 10:20:15;;;;;;;1.73;1.37;;;;;20.10;96288.00;;;;5030576;28;20196;-56
2023/06/21 10:22:46;;;;;;;0.90;0.90;;;;;20.30;96292.00;;;;5030765;28;20250;-55
2023/06/21 10:25:17;;;;;;;1.50;1.40;;;;;20.40;96290.00;;;;5030264;28;20259;-54
2023/06/21 10:27:46;;;;;;;0.97;0.97;;;;;20.20;96295.00;;;;5034400;28;20204;-55
2023/06/21 10:30:19;;;;;;;1.07;1.07;;;;;20.30;96290.00;;;;5033488;28;20210;-55
2023/06/21 10:32:49;;;;;;;1.60;1.48;;;;;20.10;96290.00;;;;5034477;28;20295;-55
2023/06/21 10:35:19;;;;;;;1.27;1.27;;;;;20.10;96284.00;;;;5034998;28;20224;-55
2023/06/21 10:37:56;;;;;;;0.97;0.97;;;;;20.00;96291.00;;;;5033615;28;20193;-54
2023/06/21 10:40:23;;;;;;;0.80;0.80;;;;;20.30;96297.00;;;;5034707;28;20195;-55
2023/06/21 10:42:53;;;;;;;1.27;1.23;;;;;20.10;96295.00;;;;5035108;28;20193;-56
2023/06/21 10:45:22;;;;;;;1.07;1.07;;;;;20.60;96286.00;;;;5034545;28;20239;-55
2023/06/21 10:47:54;;;;;;;1.38;1.38;;;;;21.10;96286.00;;;;5034394;28;20211;-54
2023/06/21 10:50:22;;;;;;;1.58;1.48;;;;;21.30;96276.00;;;;5034213;28;20656;-54
2023/06/21 10:52:54;;;;;;;0.90;0.90;;;;;21.60;96277.00;;;;5034367;28;20200;-54
2023/06/21 10:55:22;;;;;;;1.75;1.63;;;;;21.90;96279.00;;;;5034273;28;20227;-54
2023/06/21 10:57:53;;;;;;;1.60;1.52;;;;;21.80;96281.00;;;;5034211;28;20196;-55
2023/06/21 11:00:23;;;;;;;2.03;1.85;;;;;21.40;96279.00;;;;5034141;28;20189;-54
2023/06/21 11:02:52;;;;;;;1.38;1.17;;;;;21.50;96272.00;;;;5034141;28;20604;-54
2023/06/21 11:05:21;;;;;;;1.35;1.35;;;;;21.60;96279.00;;;;5033939;28;20228;-54
2023/06/21 11:07:57;;;;;;;2.95;1.88;;;;;21.70;96278.00;;;;5034298;28;20221;-54
2023/06/21 11:10:32;;;;;;;1.65;1.23;;;;;21.60;96273.00;;;;5032090;28;20235;-54
2023/06/21 11:12:59;;;;;;;0.60;0.60;;;;;21.80;96292.00;;;;5030119;28;20246;-54
2023/06/21 11:15:28;;;;;;;1.25;1.15;;;;;21.70;96285.00;;;;5031270;28;20225;-54
2023/06/21 11:18:00;;;;;;;0.90;0.90;;;;;21.90;96283.00;;;;5033041;28;20280;-55
2023/06/21 11:20:31;;;;;;;1.35;1.25;;;;;21.80;96278.00;;;;5033431;28;20185;-55
2023/06/21 11:23:00;;;;;;;1.42;1.33;;;;;22.30;96274.00;;;;5034182;28;20193;-54
2023/06/21 11:25:28;;;;;;;1.17;1.17;;;;;23.10;96272.00;;;;5033175;28;20259;-54
2023/06/21 11:28:29;;;;;;;1.02;0.98;;;;;23.70;96269.00;;;;5032348;28;20648;-54
2023/06/21 11:31:24;;;;;;;0.70;0.70;;;;;23.90;96265.00;;;;5029184;28;20208;-54
2023/06/21 11:33:54;;;;;;;1.00;0.95;;;;;24.00;96263.00;;;;5020384;28;20213;-54
2023/06/21 11:36:26;;;;;;;0.65;0.65;;;;;24.10;96290.00;;;;5029135;28;20635;-55
2023/06/21 11:39:20;;;;;;;1.50;1.40;;;;;23.70;96288.00;;;;5032701;28;20549;-54
2023/06/21 11:42:01;;;;;;;1.73;1.63;;;;;24.10;96291.00;;;;5033267;28;20275;-54
2023/06/21 11:44:31;;;;;;;1.60;1.50;;;;;24.60;96281.00;;;;5033265;28;20203;-55
2023/06/21 11:47:05;;;;;;;0.93;0.93;;;;;25.30;96268.00;;;;5033215;28;20215;-55
2023/06/21 11:49:45;;;;;;;0.90;0.90;;;;;25.80;96262.00;;;;5033349;28;20327;-55
2023/06/21 11:52:13;;;;;;;0.70;0.70;;;;;26.00;96267.00;;;;5033128;28;20197;-55
2023/06/21 11:54:41;;;;;;;0.95;0.95;;;;;26.20;96260.00;;;;5032301;28;20203;-55
2023/06/21 11:57:09;;;;;;;2.30;1.90;;;;;24.90;96279.00;;;;5033484;28;20203;-56
2023/06/21 11:59:37;;;;;;;1.88;1.77;;;;;25.30;96292.00;;;;5033521;28;20192;-55
2023/06/21 12:02:13;;;;;;;1.05;1.05;;;;;25.20;96274.00;;;;5031942;28;20270;-55
2023/06/21 12:04:43;;;;;;;0.90;0.90;;;;;25.80;96274.00;;;;5029308;28;20334;-55
2023/06/21 12:07:12;;;;;;;1.65;1.55;;;;;26.50;96278.00;;;;5032949;28;20204;-55
2023/06/21 12:09:40;;;;;;;1.00;1.00;;;;;26.70;96272.00;;;;5032938;28;20221;-55
2023/06/21 12:12:08;;;;;;;0.95;0.95;;;;;27.20;96277.00;;;;5032702;28;20243;-55
2023/06/21 12:14:37;;;;;;;0.93;0.93;;;;;27.30;96300.00;;;;5032902;28;20197;-55
2023/06/21 12:17:04;;;;;;;1.73;1.63;;;;;27.20;96293.00;;;;5031524;28;20204;-55
2023/06/21 12:19:33;;;;;;;1.65;1.55;;;;;27.10;96293.00;;;;5032801;28;20715;-54
2023/06/21 12:22:03;;;;;;;0.98;0.98;;;;;27.10;96301.00;;;;5032626;28;20197;-54
2023/06/21 12:24:32;;;;;;;1.48;1.45;;;;;27.20;96300.00;;;;5032901;28;20296;-54
2023/06/21 12:27:01;;;;;;;1.55;1.45;;;;;27.00;96301.00;;;;5032224;28;20193;-55
2023/06/21 12:29:29;;;;;;;0.70;0.70;;;;;26.90;96298.00;;;;5032920;28;20287;-55